createdAt,value
2018-04-13T00:00:53.334Z,12.40
2018-04-13T00:03:20.850Z,12.30
2018-04-13T00:05:48.410Z,12.20
2018-04-13T00:08:17.200Z,12.30
2018-04-13T00:10:45.536Z,12.30
2018-04-13T00:13:24.410Z,12.20
2018-04-13T00:22:37.453Z,12.20
2018-04-13T00:25:05.011Z,12.10
2018-04-13T00:27:32.527Z,12.10
2018-04-13T00:30:00.099Z,12.00
2018-04-13T00:32:27.606Z,12.00
2018-04-13T00:34:55.123Z,12.00
2018-04-13T00:37:23.268Z,12.00
2018-04-13T00:39:50.791Z,12.00
2018-04-13T00:42:19.077Z,12.00
2018-04-13T00:44:47.446Z,12.10
2018-04-13T00:47:16.506Z,12.00
2018-04-13T00:49:44.031Z,12.00
2018-04-13T00:52:11.573Z,12.00
2018-04-13T00:54:39.086Z,11.90
2018-04-13T00:57:06.606Z,11.80
2018-04-13T00:59:34.139Z,11.70
2018-04-13T01:02:01.672Z,11.60
2018-04-13T01:04:29.183Z,11.70
2018-04-13T01:06:57.340Z,11.50
2018-04-13T01:09:24.901Z,11.30
2018-04-13T01:11:52.420Z,11.40
2018-04-13T01:14:19.959Z,11.30
2018-04-13T01:16:47.475Z,11.30
2018-04-13T01:19:15.643Z,11.30
2018-04-13T01:21:43.223Z,11.30
2018-04-13T01:24:11.536Z,11.30
2018-04-13T01:26:39.057Z,11.30
2018-04-13T01:29:07.145Z,11.30
2018-04-13T01:31:34.726Z,11.20
2018-04-13T01:34:02.242Z,11.20
2018-04-13T01:36:29.811Z,11.10
2018-04-13T01:38:58.089Z,11.20
2018-04-13T01:41:25.615Z,11.10
2018-04-13T01:43:53.164Z,11.20
2018-04-13T01:46:21.445Z,11.10
2018-04-13T01:48:49.740Z,11.00
2018-04-13T01:51:17.770Z,11.00
2018-04-13T01:53:46.058Z,11.00
2018-04-13T01:56:25.548Z,11.00
2018-04-13T02:02:49.633Z,10.80
2018-04-13T02:05:17.208Z,10.80
2018-04-13T02:07:44.730Z,10.90
2018-04-13T02:10:12.518Z,10.90
2018-04-13T02:12:40.051Z,10.90
2018-04-13T02:15:07.559Z,10.90
2018-04-13T02:17:35.928Z,11.00
2018-04-13T02:20:03.442Z,10.90
2018-04-13T02:22:31.742Z,11.00
2018-04-13T02:24:59.281Z,11.00
2018-04-13T02:27:26.840Z,11.10
2018-04-13T02:29:54.371Z,11.10
2018-04-13T02:32:23.064Z,11.20
2018-04-13T02:34:51.357Z,11.20
2018-04-13T02:37:19.644Z,11.10
2018-04-13T02:39:47.964Z,11.10
2018-04-13T02:42:16.484Z,11.30
2018-04-13T02:44:44.784Z,11.20
2018-04-13T02:47:12.328Z,11.20
2018-04-13T02:49:39.908Z,11.20
2018-04-13T02:52:07.474Z,11.20
2018-04-13T02:54:35.353Z,11.20
2018-04-13T02:57:02.883Z,11.10
2018-04-13T02:59:30.411Z,11.10
2018-04-13T03:01:58.731Z,11.20
2018-04-13T03:04:26.319Z,11.20
2018-04-13T03:06:53.836Z,11.20
2018-04-13T03:09:21.404Z,11.20
2018-04-13T03:11:48.931Z,11.20
2018-04-13T03:14:16.482Z,11.20
2018-04-13T03:16:44.682Z,11.30
2018-04-13T03:19:12.206Z,11.20
2018-04-13T03:21:40.490Z,11.20
2018-04-13T03:24:08.798Z,11.20
2018-04-13T03:26:36.305Z,11.20
2018-04-13T03:29:03.899Z,11.20
2018-04-13T03:31:31.470Z,11.20
2018-04-13T03:33:58.992Z,11.20
2018-04-13T03:36:26.546Z,11.30
2018-04-13T03:38:55.383Z,11.20
2018-04-13T03:41:23.614Z,11.20
2018-04-13T03:43:51.207Z,11.30
2018-04-13T03:46:18.768Z,11.30
2018-04-13T03:48:46.281Z,11.30
2018-04-13T03:51:16.329Z,11.40
2018-04-13T03:53:44.007Z,11.40
2018-04-13T03:56:11.552Z,11.40
2018-04-13T03:58:39.094Z,11.40
2018-04-13T04:01:07.449Z,11.40
2018-04-13T04:03:34.966Z,11.30
2018-04-13T04:06:02.536Z,11.30
2018-04-13T04:08:30.088Z,11.40
2018-04-13T04:10:57.676Z,11.40
2018-04-13T04:13:25.211Z,11.40
2018-04-13T04:15:52.781Z,11.30
2018-04-13T04:18:20.366Z,11.20
2018-04-13T04:21:00.177Z,11.30
2018-04-13T04:23:39.499Z,11.30
2018-04-13T04:26:21.779Z,11.20
2018-04-13T04:28:49.370Z,11.20
2018-04-13T04:31:16.917Z,11.20
2018-04-13T04:33:44.469Z,11.30
2018-04-13T04:36:12.020Z,11.30
2018-04-13T04:38:39.581Z,11.20
2018-04-13T04:41:07.268Z,11.10
2018-04-13T04:43:35.443Z,11.00
2018-04-13T04:46:03.032Z,11.00
2018-04-13T04:48:31.774Z,11.00
2018-04-13T04:50:59.348Z,11.00
2018-04-13T04:53:26.930Z,10.90
2018-04-13T04:55:54.531Z,10.90
2018-04-13T04:58:22.413Z,10.90
2018-04-13T05:00:50.456Z,10.90
2018-04-13T05:03:19.416Z,10.80
2018-04-13T05:05:47.058Z,10.80
2018-04-13T05:08:15.748Z,10.80
2018-04-13T05:10:43.312Z,10.90
2018-04-13T05:13:15.441Z,11.00
2018-04-13T05:15:43.054Z,11.00
2018-04-13T05:18:10.646Z,11.00
2018-04-13T05:20:38.944Z,11.00
2018-04-13T05:23:06.487Z,11.00
2018-04-13T05:25:37.724Z,11.10
2018-04-13T05:28:05.358Z,11.10
2018-04-13T05:30:32.896Z,11.20
2018-04-13T05:33:00.487Z,11.30
2018-04-13T05:35:28.831Z,11.50
2018-04-13T05:37:56.651Z,11.40
2018-04-13T05:40:24.573Z,11.50
2018-04-13T05:42:52.475Z,11.70
2018-04-13T05:45:21.936Z,11.80
2018-04-13T05:47:50.140Z,11.90
2018-04-13T05:50:17.738Z,12.00
2018-04-13T05:52:45.267Z,12.10
2018-04-13T05:55:14.516Z,12.30
2018-04-13T05:57:42.047Z,12.30
2018-04-13T06:00:09.929Z,12.50
2018-04-13T06:02:37.571Z,12.60
2018-04-13T06:05:05.150Z,12.60
2018-04-13T06:07:32.687Z,12.70
2018-04-13T06:10:00.909Z,12.60
2018-04-13T06:12:28.438Z,12.60
2018-04-13T06:14:55.950Z,12.70
2018-04-13T06:17:24.347Z,12.60
2018-04-13T06:19:51.937Z,12.60
2018-04-13T06:22:19.472Z,12.60
2018-04-13T06:24:47.015Z,12.70
2018-04-13T06:27:15.531Z,12.80
2018-04-13T06:29:43.816Z,13.00
2018-04-13T06:32:11.596Z,13.00
2018-04-13T06:34:39.143Z,13.20
2018-04-13T06:37:06.891Z,13.70
2018-04-13T06:39:34.492Z,14.50
2018-04-13T06:42:02.063Z,15.40
2018-04-13T06:44:29.581Z,16.30
2018-04-13T06:46:57.841Z,17.00
2018-04-13T06:49:25.355Z,17.50
2018-04-13T06:51:53.655Z,17.80
2018-04-13T06:54:21.527Z,17.70
2018-04-13T06:56:49.049Z,18.50
2018-04-13T06:59:16.585Z,19.10
2018-04-13T07:01:44.123Z,19.20
2018-04-13T07:04:11.644Z,19.50
2018-04-13T07:06:39.957Z,19.60
2018-04-13T07:09:07.590Z,19.60
2018-04-13T07:11:36.221Z,19.80
2018-04-13T07:14:03.797Z,19.80
2018-04-13T07:16:31.839Z,19.50
2018-04-13T07:19:01.169Z,19.60
2018-04-13T07:21:28.699Z,19.50
2018-04-13T07:23:56.270Z,19.90
2018-04-13T07:26:23.809Z,20.60
2018-04-13T07:28:51.430Z,20.80
2018-04-13T07:31:19.770Z,20.20
2018-04-13T07:33:47.313Z,20.10
2018-04-13T07:36:20.228Z,21.10
2018-04-13T07:38:49.342Z,21.10
2018-04-13T07:41:17.595Z,21.20
2018-04-13T07:43:45.159Z,21.60
2018-04-13T07:46:13.652Z,21.00
2018-04-13T07:48:42.067Z,20.50
2018-04-13T07:51:10.476Z,19.40
2018-04-13T07:53:38.105Z,18.30
2018-04-13T07:56:05.656Z,17.80
2018-04-13T07:58:34.031Z,17.20
2018-04-13T08:01:02.379Z,17.10
2018-04-13T08:03:30.332Z,17.40
2018-04-13T08:05:59.062Z,17.50
2018-04-13T08:08:26.684Z,17.90
2018-04-13T08:10:54.207Z,18.30
2018-04-13T08:13:21.754Z,17.70
2018-04-13T08:15:49.310Z,17.60
2018-04-13T08:18:16.871Z,17.40
2018-04-13T08:20:44.391Z,17.40
2018-04-13T08:23:12.343Z,18.10
2018-04-13T08:25:39.873Z,20.00
2018-04-13T08:28:07.426Z,22.20
2018-04-13T08:30:34.983Z,23.60
2018-04-13T08:33:02.512Z,22.40
2018-04-13T08:35:30.841Z,22.10
2018-04-13T08:37:58.451Z,22.00
2018-04-13T08:40:26.009Z,21.30
2018-04-13T08:42:53.538Z,20.90
2018-04-13T08:45:22.399Z,21.10
2018-04-13T08:47:53.283Z,21.00
2018-04-13T08:50:21.583Z,21.40
2018-04-13T08:52:49.778Z,21.60
2018-04-13T08:55:19.330Z,21.50
2018-04-13T09:00:20.731Z,21.50
2018-04-13T09:02:49.083Z,22.20
2018-04-13T09:05:16.769Z,22.10
2018-04-13T09:07:44.981Z,22.10
2018-04-13T09:10:14.962Z,21.60
2018-04-13T09:12:42.617Z,21.50
2018-04-13T09:15:10.235Z,21.40
2018-04-13T09:17:37.751Z,21.60
2018-04-13T09:20:05.289Z,23.10
2018-04-13T09:22:35.738Z,24.30
2018-04-13T09:25:03.752Z,24.30
2018-04-13T09:27:31.290Z,23.90
2018-04-13T09:29:59.076Z,23.90
2018-04-13T09:32:27.159Z,24.40
2018-04-13T09:34:55.530Z,23.60
2018-04-13T09:37:23.701Z,23.00
2018-04-13T09:39:51.675Z,23.20
2018-04-13T09:42:19.329Z,22.70
2018-04-13T09:44:46.956Z,22.00
2018-04-13T09:47:25.462Z,21.50
2018-04-13T09:52:29.205Z,20.80
2018-04-13T09:54:56.722Z,20.40
2018-04-13T09:57:24.298Z,20.20
2018-04-13T09:59:52.708Z,19.70
2018-04-13T10:02:22.388Z,19.70
2018-04-13T10:04:55.928Z,19.80
2018-04-13T10:07:23.493Z,19.80
2018-04-13T10:09:51.819Z,20.30
2018-04-13T10:12:19.759Z,20.20
2018-04-13T10:14:47.325Z,20.70
2018-04-13T10:17:17.723Z,20.70
2018-04-13T10:19:46.051Z,20.70
2018-04-13T10:22:15.413Z,20.80
2018-04-13T10:24:43.744Z,21.00
2018-04-13T10:27:11.321Z,21.00
2018-04-13T10:29:38.901Z,21.10
2018-04-13T10:32:06.435Z,21.40
2018-04-13T10:34:34.500Z,21.30
2018-04-13T10:37:02.542Z,21.20
2018-04-13T10:39:30.122Z,21.20
2018-04-13T10:41:58.126Z,20.80
2018-04-13T10:44:25.766Z,20.60
2018-04-13T10:46:54.312Z,20.00
2018-04-13T10:49:21.975Z,20.00
2018-04-13T10:51:49.507Z,20.00
2018-04-13T10:54:18.147Z,20.10
2018-04-13T10:56:45.963Z,20.50
2018-04-13T10:59:24.365Z,20.30
2018-04-13T11:04:24.666Z,19.90
2018-04-13T11:06:52.217Z,19.70
2018-04-13T11:09:19.742Z,19.30
2018-04-13T11:11:47.914Z,19.00
2018-04-13T11:14:16.276Z,19.30
2018-04-13T11:16:44.582Z,19.60
2018-04-13T11:19:12.302Z,19.60
2018-04-13T11:21:40.754Z,20.00
2018-04-13T11:24:08.614Z,20.10
2018-04-13T11:26:36.171Z,20.30
2018-04-13T11:29:03.749Z,20.40
2018-04-13T11:31:31.327Z,20.50
2018-04-13T11:33:59.929Z,20.90
2018-04-13T11:36:27.464Z,20.90
2018-04-13T11:38:54.982Z,20.80
2018-04-13T11:41:22.575Z,20.40
2018-04-13T11:43:50.106Z,19.90
2018-04-13T11:46:18.539Z,19.40
2018-04-13T11:48:46.126Z,19.20
2018-04-13T11:51:25.594Z,19.00
2018-04-13T11:57:22.535Z,18.50
2018-04-13T11:59:50.086Z,18.50
2018-04-13T12:02:17.622Z,18.40
2018-04-13T12:04:45.190Z,18.40
2018-04-13T12:07:13.645Z,18.10
2018-04-13T12:09:41.158Z,18.10
2018-04-13T12:12:08.760Z,18.10
2018-04-13T12:14:38.011Z,18.20
2018-04-13T12:17:05.527Z,18.20
2018-04-13T12:19:33.616Z,18.20
2018-04-13T12:22:01.135Z,18.10
2018-04-13T12:24:29.443Z,18.00
2018-04-13T12:26:56.991Z,18.00
2018-04-13T12:29:24.564Z,18.00
2018-04-13T12:31:52.114Z,17.90
2018-04-13T12:34:19.681Z,17.80
2018-04-13T12:36:47.226Z,17.60
2018-04-13T12:39:15.500Z,17.50
2018-04-13T12:41:44.235Z,17.30
2018-04-13T12:44:11.764Z,17.30
2018-04-13T12:46:39.301Z,17.20
2018-04-13T12:49:07.619Z,16.30
2018-04-13T12:51:35.163Z,16.30
2018-04-13T12:54:02.852Z,16.20
2018-04-13T12:56:30.522Z,15.90
2018-04-13T12:58:59.176Z,15.80
2018-04-13T13:01:26.720Z,15.90
2018-04-13T13:03:54.604Z,16.00
2018-04-13T13:06:22.146Z,16.10
2018-04-13T13:08:49.687Z,16.20
2018-04-13T13:11:17.732Z,16.50
2018-04-13T13:13:45.264Z,16.60
2018-04-13T13:16:14.781Z,16.90
2018-04-13T13:18:42.357Z,17.40
2018-04-13T13:21:10.750Z,18.40
2018-04-13T13:23:38.285Z,18.40
2018-04-13T13:26:06.309Z,18.80
2018-04-13T13:28:33.832Z,19.10
2018-04-13T13:31:01.655Z,19.40
2018-04-13T13:33:30.015Z,19.60
2018-04-13T13:35:57.561Z,19.60
2018-04-13T13:38:25.096Z,19.60
2018-04-13T13:40:52.710Z,19.40
2018-04-13T13:43:20.357Z,19.50
2018-04-13T13:45:47.982Z,19.50
2018-04-13T13:48:16.721Z,19.40
2018-04-13T13:50:45.396Z,19.50
2018-04-13T13:53:25.478Z,19.10
2018-04-13T13:58:23.058Z,19.10
2018-04-13T14:00:52.175Z,19.00
2018-04-13T14:03:19.735Z,19.00
2018-04-13T14:05:48.036Z,19.10
2018-04-13T14:08:17.003Z,19.00
2018-04-13T14:10:44.532Z,18.90
2018-04-13T14:13:12.061Z,18.80
2018-04-13T14:15:39.606Z,18.80
2018-04-13T14:18:07.147Z,18.70
2018-04-13T14:20:35.439Z,18.20
2018-04-13T14:23:02.984Z,18.20
2018-04-13T14:25:31.277Z,17.30
2018-04-13T14:27:58.844Z,17.30
2018-04-13T14:30:26.818Z,17.10
2018-04-13T14:32:54.463Z,17.10
2018-04-13T14:35:22.009Z,17.20
2018-04-13T14:37:51.952Z,17.20
2018-04-13T14:40:19.489Z,17.10
2018-04-13T14:42:47.035Z,17.20
2018-04-13T14:45:25.446Z,17.30
2018-04-13T14:50:56.626Z,17.30
2018-04-13T14:53:24.124Z,17.10
2018-04-13T14:55:51.660Z,17.20
2018-04-13T14:58:21.241Z,17.20
2018-04-13T15:00:48.823Z,17.10
2018-04-13T15:03:16.766Z,17.00
2018-04-13T15:05:44.351Z,17.00
2018-04-13T15:08:14.148Z,17.00
2018-04-13T15:10:41.670Z,17.10
2018-04-13T15:13:09.991Z,17.10
2018-04-13T15:15:37.540Z,16.90
2018-04-13T15:18:34.682Z,16.80
2018-04-13T15:21:02.407Z,16.80
2018-04-13T15:23:29.923Z,16.80
2018-04-13T15:25:57.549Z,16.80
2018-04-13T15:28:25.322Z,16.70
2018-04-13T15:30:52.844Z,16.50
2018-04-13T15:33:20.982Z,16.40
2018-04-13T15:35:48.611Z,16.30
2018-04-13T15:38:16.479Z,16.20
2018-04-13T15:40:44.806Z,16.40
2018-04-13T15:43:12.414Z,16.40
2018-04-13T15:45:40.056Z,16.60
2018-04-13T15:48:07.673Z,16.60
2018-04-13T15:50:35.190Z,16.70
2018-04-13T15:53:03.587Z,16.10
2018-04-13T15:55:31.942Z,16.20
2018-04-13T15:57:59.471Z,16.20
2018-04-13T16:00:27.856Z,16.40
2018-04-13T16:02:55.478Z,16.40
2018-04-13T16:05:23.078Z,16.80
2018-04-13T16:07:50.633Z,17.00
2018-04-13T16:10:18.198Z,16.90
2018-04-13T16:12:45.739Z,16.70
2018-04-13T16:15:26.193Z,16.70
2018-04-13T16:21:51.496Z,16.70
2018-04-13T16:24:19.814Z,16.50
2018-04-13T16:26:47.738Z,16.50
2018-04-13T16:29:17.299Z,16.80
2018-04-13T16:31:45.677Z,16.80
2018-04-13T16:34:27.768Z,16.90
2018-04-13T16:47:45.419Z,16.90
2018-04-13T16:50:14.518Z,16.20
2018-04-13T17:02:52.659Z,16.20
2018-04-13T17:05:20.223Z,15.90
2018-04-13T17:07:48.170Z,15.90
2018-04-13T17:10:17.207Z,15.90
2018-04-13T17:12:48.563Z,15.90
2018-04-13T17:15:16.812Z,15.90
2018-04-13T17:17:44.539Z,15.80
2018-04-13T17:20:12.844Z,15.70
2018-04-13T17:22:40.579Z,15.60
2018-04-13T17:25:08.649Z,15.50
2018-04-13T17:27:36.222Z,15.40
2018-04-13T17:30:03.838Z,15.20
2018-04-13T17:32:31.483Z,15.10
2018-04-13T17:34:59.819Z,14.70
2018-04-13T17:37:27.478Z,14.70
2018-04-13T17:39:55.056Z,14.60
2018-04-13T17:42:22.631Z,14.60
2018-04-13T17:44:50.969Z,14.30
2018-04-13T17:47:18.966Z,14.30
2018-04-13T17:49:47.383Z,14.10
2018-04-13T17:52:16.282Z,13.90
2018-04-13T17:54:43.886Z,13.80
2018-04-13T17:57:11.480Z,13.60
2018-04-13T17:59:39.111Z,13.60
2018-04-13T18:02:06.668Z,13.50
2018-04-13T18:04:34.982Z,13.50
2018-04-13T18:07:02.528Z,13.50
2018-04-13T18:09:32.772Z,13.20
2018-04-13T18:12:00.371Z,13.20
2018-04-13T18:14:27.920Z,13.20
2018-04-13T18:16:55.499Z,13.00
2018-04-13T18:19:23.032Z,12.90
2018-04-13T18:21:50.560Z,12.80
2018-04-13T18:24:18.222Z,12.80
2018-04-13T18:29:44.853Z,12.60
2018-04-13T18:32:14.067Z,12.50
2018-04-13T18:37:17.204Z,12.50
2018-04-13T18:39:44.767Z,12.50
2018-04-13T18:42:12.288Z,12.50
2018-04-13T18:44:39.855Z,12.40
2018-04-13T18:47:16.206Z,12.40
2018-04-13T18:49:43.860Z,12.40
2018-04-13T18:52:18.397Z,12.40
2018-04-13T18:54:45.958Z,12.40
2018-04-13T18:57:23.616Z,12.30
2018-04-13T19:03:14.093Z,12.10
2018-04-13T19:05:41.722Z,12.00
2018-04-13T19:08:09.294Z,11.90
2018-04-13T19:10:38.674Z,11.80
2018-04-13T19:13:06.384Z,11.80
2018-04-13T19:15:34.014Z,11.70
2018-04-13T19:18:01.618Z,11.60
2018-04-13T19:20:29.149Z,11.50
2018-04-13T19:22:57.535Z,11.40
2018-04-13T19:25:25.232Z,11.40
2018-04-13T19:27:52.796Z,11.40
2018-04-13T19:30:20.347Z,11.40
2018-04-13T19:32:48.274Z,11.40
2018-04-13T19:35:16.594Z,11.40
2018-04-13T19:37:44.147Z,11.40
2018-04-13T19:40:11.887Z,11.30
2018-04-13T19:42:43.424Z,11.20
2018-04-13T19:45:10.952Z,11.10
2018-04-13T19:47:38.518Z,11.10
2018-04-13T19:50:06.948Z,11.10
2018-04-13T19:52:34.575Z,11.00
2018-04-13T19:55:02.471Z,10.90
2018-04-13T19:57:30.090Z,11.00
2018-04-13T19:59:57.632Z,11.00
2018-04-13T20:02:25.215Z,10.90
2018-04-13T20:04:52.800Z,10.90
2018-04-13T20:07:20.442Z,10.80
2018-04-13T20:09:48.267Z,10.80
2018-04-13T20:12:19.647Z,10.80
2018-04-13T20:14:47.327Z,10.80
2018-04-13T20:17:16.530Z,10.80
2018-04-13T20:19:44.938Z,10.70
2018-04-13T20:22:12.547Z,10.80
2018-04-13T20:24:41.046Z,10.90
2018-04-13T20:27:08.628Z,10.90
2018-04-13T20:29:37.136Z,10.90
2018-04-13T20:32:04.816Z,10.90
2018-04-13T20:34:32.374Z,11.00
2018-04-13T20:37:00.693Z,11.00
2018-04-13T20:39:28.862Z,11.00
2018-04-13T20:41:56.446Z,11.10
2018-04-13T20:44:24.003Z,11.10
2018-04-13T20:46:51.770Z,10.90
2018-04-13T20:49:19.460Z,10.80
2018-04-13T20:51:46.967Z,10.90
2018-04-13T20:54:15.551Z,10.90
2018-04-13T20:56:43.087Z,11.00
2018-04-13T20:59:10.647Z,11.10
2018-04-13T21:01:38.557Z,11.10
2018-04-13T21:04:06.112Z,11.20
2018-04-13T21:06:33.635Z,11.20
2018-04-13T21:09:01.210Z,11.20
2018-04-13T21:11:28.768Z,11.20
2018-04-13T21:13:56.507Z,11.10
2018-04-13T21:16:24.128Z,11.10
2018-04-13T21:18:51.670Z,11.10
2018-04-13T21:21:19.210Z,11.10
2018-04-13T21:23:47.183Z,11.00
2018-04-13T21:26:17.286Z,11.00
2018-04-13T21:28:44.806Z,10.90
2018-04-13T21:31:12.369Z,11.00
2018-04-13T21:33:39.902Z,11.10
2018-04-13T21:36:07.416Z,11.10
2018-04-13T21:38:35.008Z,11.10
2018-04-13T21:41:02.606Z,11.10
2018-04-13T21:43:30.909Z,11.00
2018-04-13T21:45:59.075Z,11.00
2018-04-13T21:48:27.364Z,11.10
2018-04-13T21:50:54.927Z,11.10
2018-04-13T21:53:22.717Z,11.10
2018-04-13T21:55:50.254Z,11.20
2018-04-13T21:58:17.779Z,11.10
2018-04-13T22:00:46.115Z,11.20
2018-04-13T22:03:14.650Z,11.20
2018-04-13T22:05:42.244Z,11.20
2018-04-13T22:08:10.188Z,11.30
2018-04-13T22:10:37.771Z,11.20
2018-04-13T22:13:16.940Z,11.30
2018-04-13T22:15:45.042Z,11.20
2018-04-13T22:18:14.286Z,11.20
2018-04-13T22:20:41.927Z,11.20
2018-04-13T22:23:09.446Z,11.10
2018-04-13T22:25:37.763Z,11.00
2018-04-13T22:28:05.723Z,10.90
2018-04-13T22:30:33.312Z,10.90
2018-04-13T22:33:00.884Z,10.80
2018-04-13T22:35:28.478Z,10.50
2018-04-13T22:37:56.032Z,10.50
2018-04-13T22:40:23.594Z,10.30
2018-04-13T22:42:51.929Z,10.00
2018-04-13T22:48:08.361Z,9.90
2018-04-13T22:50:35.894Z,9.90
2018-04-13T22:53:03.437Z,9.90
2018-04-13T22:55:33.284Z,9.90
2018-04-13T22:58:00.827Z,9.80
2018-04-13T23:00:29.156Z,9.50
2018-04-13T23:02:57.493Z,9.50
2018-04-13T23:05:25.029Z,9.50
2018-04-13T23:07:53.063Z,9.40
2018-04-13T23:10:20.973Z,9.40
2018-04-13T23:12:48.557Z,9.30
2018-04-13T23:15:16.461Z,9.30
2018-04-13T23:17:44.545Z,9.20
2018-04-13T23:20:12.083Z,9.20
2018-04-13T23:22:40.379Z,9.10
2018-04-13T23:25:07.934Z,9.10
2018-04-13T23:27:35.472Z,9.10
2018-04-13T23:30:03.787Z,9.00
2018-04-13T23:32:31.673Z,8.90
2018-04-13T23:34:59.245Z,9.00
2018-04-13T23:37:26.964Z,8.90
2018-04-13T23:39:54.640Z,8.90
2018-04-13T23:42:22.243Z,8.90
2018-04-13T23:44:51.960Z,8.80
2018-04-13T23:47:20.295Z,8.70
2018-04-13T23:49:47.826Z,8.70
2018-04-13T23:52:17.228Z,8.80
2018-04-13T23:54:44.828Z,8.80
2018-04-13T23:57:12.348Z,8.80
2018-04-13T23:59:39.908Z,8.70
